Time;durP1;ratioP1;P1;durP2;ratioP2;P2;SDS_P1;SDS_P2;PMS_P1;PMS_P2;Temp;Humidity;BMP_temperature;BMP_pressure;BME280_temperature;BME280_humidity;BME280_pressure;Samples;Min_cycle;Max_cycle;Signal;HPM_P1;HPM_P2
2022/10/07 00:01:11;;;;;;;8.33;6.97;;;10.60;99.90;;;;;;5045501;28;20518;-82
2022/10/07 00:03:40;;;;;;;8.73;7.10;;;10.60;99.90;;;;;;5045079;28;20610;-83
2022/10/07 00:06:13;;;;;;;9.20;7.30;;;10.60;99.90;;;;;;5045567;28;20455;-82
2022/10/07 00:08:43;;;;;;;10.30;7.60;;;10.50;99.90;;;;;;5045953;28;20434;-82
2022/10/07 00:11:13;;;;;;;9.83;8.07;;;10.60;99.90;;;;;;5045000;28;20538;-83
2022/10/07 00:13:44;;;;;;;10.93;7.87;;;10.50;99.90;;;;;;5043318;28;20475;-82
2022/10/07 00:16:14;;;;;;;13.50;8.20;;;10.50;99.90;;;;;;5042803;28;20528;-83
2022/10/07 00:18:43;;;;;;;11.90;8.47;;;10.50;99.90;;;;;;5045228;28;20473;-83
2022/10/07 00:21:15;;;;;;;11.30;7.77;;;10.40;99.90;;;;;;5046330;28;20439;-82
2022/10/07 00:23:44;;;;;;;9.17;8.20;;;10.40;99.90;;;;;;5047922;28;20434;-83
2022/10/07 00:26:15;;;;;;;9.80;8.00;;;10.40;99.90;;;;;;5044978;28;20539;-83
2022/10/07 00:28:43;;;;;;;9.67;8.57;;;10.40;99.90;;;;;;5043852;28;20531;-82
2022/10/07 00:31:14;;;;;;;10.47;8.37;;;10.40;99.90;;;;;;5045865;28;20528;-82
2022/10/07 00:33:42;;;;;;;8.37;7.60;;;10.40;99.90;;;;;;5046773;28;20435;-82
2022/10/07 00:36:14;;;;;;;12.67;9.03;;;10.40;99.90;;;;;;5046228;28;20459;-82
2022/10/07 00:38:43;;;;;;;12.13;8.90;;;10.90;99.90;;;;;;5045705;28;20526;-83
2022/10/07 00:41:17;;;;;;;9.70;8.00;;;10.30;99.90;;;;;;5044851;28;20451;-82
2022/10/07 00:43:46;;;;;;;10.13;8.67;;;10.30;99.90;;;;;;5045420;28;20488;-82
2022/10/07 00:46:28;;;;;;;9.47;8.10;;;10.30;99.90;;;;;;5045516;28;20457;-82
2022/10/07 00:48:59;;;;;;;11.00;8.00;;;10.30;99.90;;;;;;5046851;28;20449;-82
2022/10/07 00:51:32;;;;;;;12.30;8.13;;;10.30;99.90;;;;;;5044480;28;20510;-82
2022/10/07 00:54:03;;;;;;;9.87;7.40;;;10.30;99.90;;;;;;5045755;28;20486;-82
2022/10/07 00:56:33;;;;;;;8.90;8.00;;;10.20;99.90;;;;;;5045368;28;20454;-83
2022/10/07 00:59:02;;;;;;;9.33;7.80;;;10.20;99.90;;;;;;5045309;28;20518;-82
2022/10/07 01:01:30;;;;;;;12.10;7.50;;;10.20;99.90;;;;;;5044503;28;20459;-82
2022/10/07 01:04:01;;;;;;;9.50;7.10;;;10.20;99.90;;;;;;5045600;28;20477;-83
2022/10/07 01:06:31;;;;;;;8.50;7.60;;;10.20;99.90;;;;;;5044308;28;20483;-82
2022/10/07 01:08:59;;;;;;;10.50;6.87;;;10.20;99.90;;;;;;5044556;28;20439;-82
2022/10/07 01:11:39;;;;;;;9.80;6.73;;;10.20;99.90;;;;;;5043696;28;20525;-82
2022/10/07 01:14:15;;;;;;;14.83;6.87;;;10.20;99.90;;;;;;5043885;28;20467;-82
2022/10/07 01:16:52;;;;;;;9.40;6.97;;;10.10;99.90;;;;;;5043261;28;20478;-82
2022/10/07 01:19:40;;;;;;;8.70;6.07;;;10.70;99.90;;;;;;5044098;28;20442;-82
2022/10/07 01:22:21;;;;;;;10.83;6.87;;;10.20;99.90;;;;;;5043769;28;20446;-82
2022/10/07 01:25:02;;;;;;;10.43;6.00;;;10.10;99.90;;;;;;5043514;28;20470;-81
2022/10/07 01:27:34;;;;;;;10.47;7.20;;;10.10;99.90;;;;;;5042466;28;20528;-82
2022/10/07 01:30:04;;;;;;;9.27;5.97;;;10.10;99.90;;;;;;5043398;28;20505;-82
2022/10/07 01:32:36;;;;;;;11.23;7.17;;;10.00;99.90;;;;;;5042872;28;20475;-83
2022/10/07 01:35:10;;;;;;;6.87;6.27;;;10.00;99.90;;;;;;5046712;28;20466;-82
2022/10/07 01:37:44;;;;;;;11.33;6.53;;;10.00;99.90;;;;;;5057970;28;20451;-83
2022/10/07 01:40:15;;;;;;;11.73;6.40;;;10.00;99.90;;;;;;5057258;28;20447;-83
2022/10/07 01:42:47;;;;;;;7.07;6.17;;;10.00;99.90;;;;;;5053462;28;20432;-83
2022/10/07 01:45:20;;;;;;;11.80;6.30;;;10.00;99.90;;;;;;5050919;28;20558;-82
2022/10/07 01:47:49;;;;;;;9.10;6.00;;;10.00;99.90;;;;;;5049652;28;20447;-83
2022/10/07 01:50:22;;;;;;;10.23;6.20;;;10.00;99.90;;;;;;5049247;28;20454;-82
2022/10/07 01:53:15;;;;;;;6.70;5.20;;;9.90;99.90;;;;;;5047791;28;20471;-82
2022/10/07 01:55:55;;;;;;;6.70;6.00;;;9.90;99.90;;;;;;5047786;28;20465;-83
2022/10/07 01:58:48;;;;;;;7.23;5.60;;;9.90;99.90;;;;;;5046467;28;20435;-82
2022/10/07 02:01:22;;;;;;;10.43;5.80;;;9.90;99.90;;;;;;5047170;28;20466;-82
2022/10/07 02:04:12;;;;;;;9.87;6.03;;;9.80;99.90;;;;;;5046112;28;20871;-82
2022/10/07 02:06:49;;;;;;;10.13;6.00;;;9.80;99.90;;;;;;5045968;28;20450;-82
2022/10/07 02:09:28;;;;;;;9.80;5.47;;;10.10;99.90;;;;;;5045460;28;20443;-82
2022/10/07 02:12:02;;;;;;;8.90;5.37;;;9.80;99.90;;;;;;5045206;28;20470;-82
2022/10/07 02:14:37;;;;;;;8.83;5.03;;;9.70;99.90;;;;;;5045102;28;20513;-83
2022/10/07 02:17:13;;;;;;;10.07;5.40;;;9.70;99.90;;;;;;5045232;28;20459;-83
2022/10/07 02:19:46;;;;;;;9.23;5.27;;;9.70;99.90;;;;;;5044565;28;20474;-82
2022/10/07 02:22:17;;;;;;;7.03;4.97;;;9.70;99.90;;;;;;5049604;28;21002;-82
2022/10/07 02:24:48;;;;;;;9.50;4.40;;;9.70;99.90;;;;;;5048483;28;20541;-81
2022/10/07 02:27:21;;;;;;;8.17;4.70;;;9.70;99.90;;;;;;5046846;28;20948;-82
2022/10/07 02:29:59;;;;;;;8.50;4.80;;;9.70;99.90;;;;;;5045367;28;20516;-82
2022/10/07 02:32:30;;;;;;;10.77;4.60;;;9.60;99.90;;;;;;5045080;28;20485;-82
2022/10/07 02:35:02;;;;;;;6.77;4.40;;;9.60;99.90;;;;;;5044243;28;20462;-82
2022/10/07 02:37:36;;;;;;;9.10;4.47;;;9.60;99.90;;;;;;5045055;28;20439;-82
2022/10/07 02:40:06;;;;;;;10.23;4.37;;;9.60;99.90;;;;;;5044826;28;20434;-82
2022/10/07 02:42:46;;;;;;;6.97;4.70;;;9.60;99.90;;;;;;5044184;28;20851;-82
2022/10/07 02:45:22;;;;;;;7.40;4.20;;;9.60;99.90;;;;;;5045153;28;20886;-82
2022/10/07 02:47:59;;;;;;;9.20;4.40;;;9.60;99.90;;;;;;5044429;28;20446;-82
2022/10/07 02:50:37;;;;;;;6.90;4.13;;;9.50;99.90;;;;;;5043926;28;20529;-82
2022/10/07 02:53:06;;;;;;;8.53;3.80;;;9.50;99.90;;;;;;5041846;28;20466;-81
2022/10/07 02:55:35;;;;;;;9.37;4.73;;;9.50;99.90;;;;;;5044416;28;20463;-81
2022/10/07 02:58:07;;;;;;;5.70;3.83;;;9.50;99.90;;;;;;5044936;28;20526;-84
2022/10/07 03:00:42;;;;;;;9.37;3.73;;;9.80;99.90;;;;;;5043277;28;20479;-82
2022/10/07 03:03:11;;;;;;;6.73;3.47;;;9.50;99.90;;;;;;5044756;28;20449;-82
2022/10/07 03:05:49;;;;;;;8.63;4.03;;;9.50;99.90;;;;;;5044140;28;20999;-81
2022/10/07 03:08:19;;;;;;;5.70;3.23;;;9.50;99.90;;;;;;5044538;28;20451;-81
2022/10/07 03:10:48;;;;;;;9.43;5.73;;;9.50;99.90;;;;;;5044006;28;20472;-81
2022/10/07 03:13:16;;;;;;;11.70;6.63;;;9.40;99.90;;;;;;5043291;28;20471;-82
2022/10/07 03:15:51;;;;;;;6.73;3.70;;;9.40;99.90;;;;;;5043506;28;20470;-80
2022/10/07 03:18:28;;;;;;;11.10;7.07;;;9.40;99.90;;;;;;5042166;28;20438;-82
2022/10/07 03:21:08;;;;;;;10.43;5.80;;;9.40;99.90;;;;;;5043093;28;20447;-82
2022/10/07 03:23:37;;;;;;;14.67;9.77;;;9.40;99.90;;;;;;5047419;28;20522;-83
2022/10/07 03:26:05;;;;;;;9.43;5.87;;;9.30;99.90;;;;;;5045956;28;20448;-82
2022/10/07 03:28:36;;;;;;;14.80;11.13;;;9.40;99.90;;;;;;5045597;28;20986;-83
2022/10/07 03:31:09;;;;;;;9.40;4.97;;;9.40;99.90;;;;;;5044587;28;20466;-83
2022/10/07 03:33:42;;;;;;;9.60;3.60;;;9.40;99.90;;;;;;5043777;28;20821;-81
2022/10/07 03:36:10;;;;;;;8.47;3.97;;;9.30;99.90;;;;;;5043271;28;20447;-80
2022/10/07 03:38:41;;;;;;;9.63;4.03;;;9.30;99.90;;;;;;5041889;28;20435;-81
2022/10/07 03:41:11;;;;;;;10.80;4.50;;;9.30;99.90;;;;;;5041847;28;20458;-80
2022/10/07 03:43:40;;;;;;;7.50;3.80;;;9.30;99.90;;;;;;5040897;28;20447;-80
2022/10/07 03:46:11;;;;;;;7.63;3.87;;;9.30;99.90;;;;;;5048386;28;20439;-82
2022/10/07 03:48:40;;;;;;;7.27;3.60;;;9.30;99.90;;;;;;5043806;28;20812;-82
2022/10/07 03:51:08;;;;;;;8.97;4.13;;;9.20;99.90;;;;;;5044191;28;20473;-82
2022/10/07 03:53:39;;;;;;;9.43;3.90;;;9.20;99.90;;;;;;5043160;28;20494;-83
2022/10/07 03:56:07;;;;;;;9.50;4.60;;;9.20;99.90;;;;;;5044567;28;20457;-82
2022/10/07 03:58:37;;;;;;;5.57;3.63;;;9.30;99.90;;;;;;5044186;28;20447;-81
2022/10/07 04:01:12;;;;;;;8.47;4.63;;;9.30;99.90;;;;;;5043252;28;20948;-83
2022/10/07 04:03:48;;;;;;;7.33;4.37;;;9.20;99.90;;;;;;5044550;28;20450;-81
2022/10/07 04:06:16;;;;;;;8.37;4.13;;;9.20;99.90;;;;;;5047234;28;20457;-81
2022/10/07 04:08:45;;;;;;;9.27;4.30;;;9.20;99.90;;;;;;5048769;28;20522;-81
2022/10/07 04:11:13;;;;;;;8.23;4.20;;;9.20;99.90;;;;;;5049677;28;20474;-81
2022/10/07 04:13:46;;;;;;;7.20;4.27;;;9.10;99.90;;;;;;5046205;28;20501;-83
2022/10/07 04:16:18;;;;;;;7.50;4.23;;;9.10;99.90;;;;;;5046779;28;20458;-82
2022/10/07 04:18:48;;;;;;;9.90;4.20;;;9.10;99.90;;;;;;5047068;28;20477;-82
2022/10/07 04:21:16;;;;;;;8.93;4.63;;;9.10;99.90;;;;;;5048934;28;20805;-81
2022/10/07 04:23:44;;;;;;;6.53;3.53;;;9.20;99.90;;;;;;5046887;28;20443;-81
2022/10/07 04:26:13;;;;;;;10.63;4.27;;;9.10;99.90;;;;;;5048416;28;20454;-82
2022/10/07 04:28:45;;;;;;;8.90;4.77;;;9.10;99.90;;;;;;5047912;28;20450;-83
2022/10/07 04:31:19;;;;;;;8.87;4.27;;;9.00;99.90;;;;;;5046516;28;20478;-82
2022/10/07 04:33:54;;;;;;;9.77;5.00;;;9.10;99.90;;;;;;5046348;28;20512;-83
2022/10/07 04:36:26;;;;;;;7.93;4.97;;;9.00;99.90;;;;;;5047615;28;20533;-83
2022/10/07 04:39:02;;;;;;;9.67;5.50;;;9.00;99.90;;;;;;5047494;28;20446;-83
2022/10/07 04:41:34;;;;;;;8.53;5.13;;;9.00;99.90;;;;;;5048584;28;20451;-82
2022/10/07 04:44:05;;;;;;;9.73;5.50;;;9.00;99.90;;;;;;5046568;28;20864;-82
2022/10/07 04:46:40;;;;;;;8.20;5.10;;;9.00;99.90;;;;;;5046103;28;20455;-83
2022/10/07 04:49:12;;;;;;;8.10;4.87;;;9.00;99.90;;;;;;5045492;28;20447;-81
2022/10/07 04:51:41;;;;;;;10.70;5.37;;;8.90;99.90;;;;;;5045827;28;20459;-82
2022/10/07 04:54:09;;;;;;;7.37;4.80;;;8.90;99.90;;;;;;5044204;28;20492;-82
2022/10/07 04:56:44;;;;;;;13.07;5.70;;;8.90;99.90;;;;;;5044473;28;20538;-81
2022/10/07 04:59:13;;;;;;;14.13;7.60;;;9.00;99.90;;;;;;5044521;28;20485;-82
2022/10/07 05:01:44;;;;;;;10.20;6.43;;;9.00;99.90;;;;;;5045212;28;20446;-82
2022/10/07 05:04:13;;;;;;;13.47;9.67;;;9.00;99.90;;;;;;5044027;28;20472;-82
2022/10/07 05:06:44;;;;;;;11.47;7.90;;;8.90;99.90;;;;;;5043111;28;20458;-82
2022/10/07 05:09:13;;;;;;;8.20;5.47;;;8.90;99.90;;;;;;5043695;28;20454;-82
2022/10/07 05:11:44;;;;;;;9.00;5.50;;;8.90;99.90;;;;;;5043298;28;20466;-82
2022/10/07 05:14:20;;;;;;;9.47;5.37;;;8.90;99.90;;;;;;5042238;28;21046;-82
2022/10/07 05:16:51;;;;;;;7.20;5.30;;;8.90;99.90;;;;;;5042964;28;20443;-81
2022/10/07 05:19:22;;;;;;;10.23;6.80;;;8.90;99.90;;;;;;5039566;28;20493;-80
2022/10/07 05:21:51;;;;;;;10.80;6.33;;;8.90;99.90;;;;;;5038715;28;20446;-81
2022/10/07 05:24:19;;;;;;;10.77;6.83;;;8.90;99.90;;;;;;5037782;28;20487;-80
2022/10/07 05:26:48;;;;;;;11.20;8.40;;;8.90;99.90;;;;;;5039622;28;20447;-81
2022/10/07 05:29:16;;;;;;;11.60;6.20;;;8.90;99.90;;;;;;5038720;28;20486;-80
2022/10/07 05:31:49;;;;;;;14.00;6.80;;;8.80;99.90;;;;;;5039209;28;20482;-80
2022/10/07 05:34:21;;;;;;;10.17;6.50;;;8.80;99.90;;;;;;5038073;28;20506;-81
2022/10/07 05:36:50;;;;;;;12.20;6.10;;;8.80;99.90;;;;;;5039562;28;20884;-80
2022/10/07 05:39:18;;;;;;;13.20;6.40;;;8.80;99.90;;;;;;5038953;28;20443;-81
2022/10/07 05:41:52;;;;;;;9.80;5.93;;;8.80;99.90;;;;;;5038879;28;20454;-81
2022/10/07 05:44:26;;;;;;;12.60;6.70;;;8.80;99.90;;;;;;5039402;28;20818;-81
2022/10/07 05:46:58;;;;;;;12.50;7.07;;;8.80;99.90;;;;;;5039352;28;20515;-81
2022/10/07 05:49:27;;;;;;;12.20;7.73;;;8.80;99.90;;;;;;5040557;28;20454;-81
2022/10/07 05:51:56;;;;;;;11.20;6.40;;;8.80;99.90;;;;;;5039979;28;20538;-81
2022/10/07 05:54:24;;;;;;;13.67;6.63;;;8.80;99.90;;;;;;5038301;28;20483;-80
2022/10/07 05:56:54;;;;;;;12.13;6.60;;;8.90;99.90;;;;;;5037960;28;20454;-80
2022/10/07 05:59:23;;;;;;;12.47;6.33;;;8.80;99.90;;;;;;5038266;28;20960;-80
2022/10/07 06:01:58;;;;;;;8.80;6.10;;;8.90;99.90;;;;;;5037318;28;20443;-81
2022/10/07 06:04:30;;;;;;;11.57;5.70;;;8.80;99.90;;;;;;5036928;28;20471;-80
2022/10/07 06:06:58;;;;;;;11.70;6.47;;;8.90;99.90;;;;;;5037394;28;20851;-80
2022/10/07 06:15:08;;;;;;;13.33;6.83;;;8.90;99.90;;;;;;5038159;28;20482;-81
2022/10/07 06:17:40;;;;;;;14.47;7.03;;;8.90;99.90;;;;;;5038221;28;20453;-81
2022/10/07 06:20:12;;;;;;;14.10;5.70;;;9.00;99.90;;;;;;5037697;28;20458;-80
2022/10/07 06:22:41;;;;;;;18.20;13.10;;;9.00;99.90;;;;;;5039700;28;20546;-80
2022/10/07 06:25:10;;;;;;;13.23;7.00;;;9.00;99.90;;;;;;5042959;28;20477;-81
2022/10/07 06:27:39;;;;;;;12.23;7.20;;;9.00;99.90;;;;;;5040278;28;21010;-81
2022/10/07 06:30:08;;;;;;;11.30;5.70;;;9.10;99.90;;;;;;5039976;28;20872;-81
2022/10/07 06:32:36;;;;;;;12.20;6.60;;;9.10;99.90;;;;;;5039328;28;20450;-81
2022/10/07 06:35:05;;;;;;;16.40;7.50;;;9.10;99.90;;;;;;5040075;28;20529;-80
2022/10/07 06:37:35;;;;;;;10.40;6.47;;;9.20;99.90;;;;;;5040524;28;20481;-80
2022/10/07 06:40:03;;;;;;;12.67;6.63;;;9.20;99.90;;;;;;5040781;28;20443;-80
2022/10/07 06:42:33;;;;;;;12.77;6.53;;;9.20;99.90;;;;;;5041632;28;20439;-81
2022/10/07 06:45:23;;;;;;;13.20;6.80;;;9.30;99.90;;;;;;5039283;28;20556;-80
2022/10/07 06:47:53;;;;;;;10.47;6.10;;;9.30;99.90;;;;;;5039033;28;20836;-81
2022/10/07 06:50:23;;;;;;;10.90;5.77;;;9.30;99.90;;;;;;5038966;28;20474;-79
2022/10/07 06:52:53;;;;;;;13.57;6.03;;;9.40;99.90;;;;;;5039111;28;20453;-80
2022/10/07 06:55:22;;;;;;;12.50;5.87;;;9.40;99.90;;;;;;5039465;28;21016;-79
2022/10/07 06:57:50;;;;;;;10.90;5.70;;;9.40;99.90;;;;;;5042388;28;20469;-81
2022/10/07 07:00:20;;;;;;;16.23;5.97;;;9.50;99.90;;;;;;5040513;28;20458;-80
2022/10/07 07:02:49;;;;;;;10.80;5.80;;;9.50;99.90;;;;;;5038232;28;20474;-80
2022/10/07 07:05:18;;;;;;;10.60;5.57;;;9.50;99.90;;;;;;5046439;28;20463;-80
2022/10/07 07:07:47;;;;;;;10.03;5.23;;;9.60;99.90;;;;;;5052464;28;20439;-79
2022/10/07 07:10:17;;;;;;;11.90;6.33;;;9.60;99.90;;;;;;5052781;28;20519;-81
2022/10/07 07:12:53;;;;;;;13.60;6.00;;;9.70;99.90;;;;;;5045872;28;20931;-80
2022/10/07 07:15:22;;;;;;;13.97;6.23;;;9.60;99.90;;;;;;5040338;28;20498;-80
2022/10/07 07:17:50;;;;;;;15.77;6.00;;;9.80;99.90;;;;;;5039792;28;20451;-81
2022/10/07 07:20:19;;;;;;;11.83;6.33;;;9.80;99.90;;;;;;5039359;28;20497;-80
2022/10/07 07:22:49;;;;;;;12.97;5.80;;;9.90;99.90;;;;;;5039462;28;20443;-80
2022/10/07 07:25:19;;;;;;;10.00;5.47;;;9.90;99.90;;;;;;5038545;28;20467;-79
2022/10/07 07:27:48;;;;;;;8.97;4.27;;;10.00;99.90;;;;;;5039539;28;20440;-79
2022/10/07 07:30:24;;;;;;;8.67;5.30;;;10.00;99.90;;;;;;5039054;28;20446;-80
2022/10/07 07:32:55;;;;;;;10.53;5.87;;;10.10;99.90;;;;;;5041311;28;20511;-81
2022/10/07 07:35:24;;;;;;;12.93;5.13;;;10.10;99.90;;;;;;5041171;28;21011;-80
2022/10/07 07:37:53;;;;;;;8.23;4.67;;;10.20;99.90;;;;;;5039325;28;20455;-80
2022/10/07 07:40:22;;;;;;;12.23;5.40;;;10.20;99.90;;;;;;5040874;28;20458;-81
2022/10/07 07:42:50;;;;;;;13.53;4.90;;;10.30;99.90;;;;;;5046659;28;20454;-80
2022/10/07 07:45:19;;;;;;;13.90;6.67;;;10.30;99.90;;;;;;5047881;28;20509;-81
2022/10/07 07:47:48;;;;;;;7.73;5.10;;;10.40;99.90;;;;;;5046925;28;20512;-80
2022/10/07 07:50:19;;;;;;;9.77;5.10;;;10.50;99.90;;;;;;5046695;28;20466;-81
2022/10/07 07:52:48;;;;;;;10.20;5.60;;;10.50;99.90;;;;;;5045811;28;20949;-80
2022/10/07 07:55:23;;;;;;;12.20;5.30;;;10.60;99.90;;;;;;5044682;28;20470;-80
2022/10/07 07:57:52;;;;;;;10.97;5.40;;;10.80;99.90;;;;;;5045271;28;20968;-80
2022/10/07 08:00:20;;;;;;;8.43;4.90;;;10.90;99.90;;;;;;5044158;28;20975;-80
2022/10/07 08:02:59;;;;;;;12.43;5.13;;;11.00;99.90;;;;;;5042743;28;20989;-80
2022/10/07 08:05:28;;;;;;;10.37;5.13;;;11.20;99.90;;;;;;5044382;28;20509;-81
2022/10/07 08:07:59;;;;;;;10.03;5.03;;;11.20;99.90;;;;;;5044143;28;20537;-80
2022/10/07 08:10:29;;;;;;;8.17;4.83;;;11.40;99.90;;;;;;5043553;28;20455;-81
2022/10/07 08:12:57;;;;;;;12.70;5.20;;;11.50;99.90;;;;;;5043909;28;20974;-80
2022/10/07 08:15:25;;;;;;;10.10;5.10;;;11.60;99.90;;;;;;5041911;28;20501;-81
2022/10/07 08:17:54;;;;;;;16.33;5.03;;;11.70;99.90;;;;;;5041975;28;20473;-80
2022/10/07 08:20:22;;;;;;;11.07;5.43;;;11.80;99.90;;;;;;5041914;28;20447;-81
2022/10/07 08:22:52;;;;;;;8.00;4.20;;;12.00;99.90;;;;;;5041437;28;20450;-81
2022/10/07 08:25:28;;;;;;;10.53;4.87;;;12.10;99.90;;;;;;5042051;28;20477;-80
2022/10/07 08:27:58;;;;;;;12.00;5.03;;;12.20;99.90;;;;;;5042798;28;20454;-81
2022/10/07 08:30:27;;;;;;;11.00;4.50;;;12.30;99.90;;;;;;5043537;28;20545;-80
2022/10/07 08:32:55;;;;;;;8.90;4.17;;;12.40;99.90;;;;;;5042813;28;20453;-81
2022/10/07 08:35:28;;;;;;;9.10;3.90;;;12.60;99.90;;;;;;5043810;28;20474;-81
2022/10/07 08:37:56;;;;;;;15.13;4.67;;;12.60;99.90;;;;;;5043236;28;20443;-81
2022/10/07 08:40:24;;;;;;;9.67;4.70;;;12.70;99.90;;;;;;5045438;28;20897;-80
2022/10/07 08:42:54;;;;;;;16.70;4.57;;;12.80;99.90;;;;;;5044792;28;20449;-81
2022/10/07 08:45:30;;;;;;;11.27;4.77;;;12.90;99.90;;;;;;5046312;28;20867;-81
2022/10/07 08:48:03;;;;;;;10.63;3.97;;;13.00;99.90;;;;;;5042879;28;20439;-81
2022/10/07 08:50:42;;;;;;;12.87;3.90;;;13.10;99.90;;;;;;5044271;28;20866;-82
2022/10/07 08:53:19;;;;;;;10.93;4.67;;;13.20;99.90;;;;;;5041701;28;20458;-81
2022/10/07 08:55:52;;;;;;;9.83;4.13;;;13.30;99.90;;;;;;5043167;28;20506;-81
2022/10/07 08:58:42;;;;;;;9.40;4.00;;;13.30;99.90;;;;;;5044222;28;20471;-80
2022/10/07 09:01:29;;;;;;;11.47;4.63;;;13.40;99.90;;;;;;5046079;28;20454;-81
2022/10/07 09:04:09;;;;;;;7.97;4.27;;;13.50;99.90;;;;;;5046340;28;20467;-80
2022/10/07 09:06:41;;;;;;;12.77;4.43;;;13.60;99.90;;;;;;5044751;28;20497;-81
2022/10/07 09:09:15;;;;;;;9.00;4.07;;;13.60;99.90;;;;;;5045418;28;20446;-81
2022/10/07 09:11:47;;;;;;;10.07;4.40;;;13.70;99.90;;;;;;5047167;28;20445;-80
2022/10/07 09:14:26;;;;;;;11.57;4.50;;;13.80;99.90;;;;;;5046268;28;20474;-81
2022/10/07 09:17:01;;;;;;;10.33;4.40;;;13.80;99.90;;;;;;5048008;28;20987;-80
2022/10/07 09:19:32;;;;;;;13.93;4.67;;;13.90;99.90;;;;;;5048772;28;20445;-82
2022/10/07 09:22:07;;;;;;;9.37;4.20;;;13.90;99.90;;;;;;5048657;28;20443;-81
2022/10/07 09:24:35;;;;;;;13.80;3.87;;;14.00;99.90;;;;;;5050856;28;20467;-83
2022/10/07 09:27:13;;;;;;;9.17;4.80;;;14.10;99.90;;;;;;5049438;28;20447;-81
2022/10/07 09:29:43;;;;;;;7.83;4.13;;;14.10;99.90;;;;;;5047905;28;20482;-81
2022/10/07 09:32:13;;;;;;;14.57;4.50;;;14.20;99.90;;;;;;5051136;28;20448;-82
2022/10/07 09:34:42;;;;;;;9.97;4.33;;;14.30;99.90;;;;;;5047953;28;20463;-81
2022/10/07 09:37:17;;;;;;;10.43;4.07;;;14.30;99.90;;;;;;5046117;28;20467;-81
2022/10/07 09:39:48;;;;;;;8.40;3.20;;;14.40;99.90;;;;;;5053271;28;20421;-82
2022/10/07 09:42:26;;;;;;;8.60;3.47;;;14.40;99.90;;;;;;5046720;28;20421;-81
2022/10/07 09:45:00;;;;;;;10.53;4.17;;;14.50;99.90;;;;;;5041703;28;20533;-79
2022/10/07 09:47:32;;;;;;;8.00;3.70;;;14.60;99.90;;;;;;5042740;28;20446;-81
2022/10/07 09:50:00;;;;;;;10.07;5.20;;;14.70;99.90;;;;;;5044900;28;20427;-80
2022/10/07 09:52:30;;;;;;;11.00;3.53;;;14.70;99.90;;;;;;5043498;28;20454;-82
2022/10/07 09:55:30;;;;;;;10.03;3.73;;;14.80;99.90;;;;;;5044815;28;20459;-82
2022/10/07 09:58:03;;;;;;;7.87;3.30;;;14.80;99.90;;;;;;5044653;28;20626;-83
2022/10/07 10:00:42;;;;;;;8.27;3.90;;;14.90;99.90;;;;;;5044153;28;20937;-83
2022/10/07 10:03:11;;;;;;;8.60;3.10;;;14.90;99.90;;;;;;5040126;28;20446;-82
2022/10/07 10:05:50;;;;;;;9.17;3.17;;;15.00;99.90;;;;;;5040585;28;20471;-80
2022/10/07 10:08:24;;;;;;;10.43;3.43;;;15.10;99.90;;;;;;5041124;28;20451;-80
2022/10/07 10:10:54;;;;;;;9.30;4.20;;;15.10;99.90;;;;;;5039430;28;20435;-80
2022/10/07 10:13:29;;;;;;;11.47;3.57;;;15.20;99.90;;;;;;5038479;28;20501;-79
2022/10/07 10:15:59;;;;;;;10.20;3.00;;;15.20;99.90;;;;;;5040529;28;20466;-82
2022/10/07 10:18:39;;;;;;;14.50;4.10;;;15.30;99.90;;;;;;5039812;28;20443;-81
2022/10/07 10:21:18;;;;;;;11.07;3.10;;;15.30;99.90;;;;;;5039423;28;20443;-83
2022/10/07 10:23:48;;;;;;;9.63;3.00;;;15.40;99.90;;;;;;5040916;28;20418;-82
2022/10/07 10:26:35;;;;;;;8.47;2.67;;;15.40;99.90;;;;;;5041582;28;20431;-80
2022/10/07 10:29:28;;;;;;;12.10;3.57;;;15.40;99.90;;;;;;5040144;28;20474;-81
2022/10/07 10:32:38;;;;;;;11.97;3.27;;;15.50;99.90;;;;;;5039490;28;20467;-82
2022/10/07 10:35:13;;;;;;;14.60;4.03;;;15.50;99.90;;;;;;5039111;28;20454;-82
2022/10/07 10:38:04;;;;;;;10.40;3.33;;;15.60;99.90;;;;;;5039631;28;20625;-81
2022/10/07 10:40:40;;;;;;;9.53;3.00;;;15.70;99.90;;;;;;5041254;28;20425;-80
2022/10/07 10:43:19;;;;;;;13.23;3.70;;;15.70;99.90;;;;;;5041489;28;20441;-79
2022/10/07 10:46:00;;;;;;;7.40;2.07;;;15.70;99.90;;;;;;5036231;28;20485;-80
2022/10/07 10:48:37;;;;;;;8.10;3.23;;;15.80;99.90;;;;;;5043149;28;21042;-82
2022/10/07 10:51:20;;;;;;;11.07;2.87;;;15.80;99.90;;;;;;5045805;28;20489;-83
2022/10/07 10:53:55;;;;;;;7.87;3.37;;;15.90;99.90;;;;;;5048163;28;20415;-81
2022/10/07 10:56:36;;;;;;;9.60;3.10;;;15.90;99.90;;;;;;5043741;28;20463;-81
2022/10/07 10:59:28;;;;;;;11.77;2.80;;;16.00;99.90;;;;;;5041307;28;20949;-81
2022/10/07 11:02:11;;;;;;;6.20;2.57;;;16.00;99.90;;;;;;5039096;28;20543;-81
2022/10/07 11:04:48;;;;;;;6.30;2.70;;;16.00;99.90;;;;;;5040240;28;20973;-83
2022/10/07 11:07:21;;;;;;;10.87;3.00;;;16.10;99.90;;;;;;5040004;28;20608;-80
2022/10/07 11:09:56;;;;;;;8.27;2.87;;;16.20;99.90;;;;;;5039234;28;20418;-82
2022/10/07 11:12:28;;;;;;;7.80;3.00;;;16.30;99.90;;;;;;5038053;28;20813;-80
2022/10/07 11:15:01;;;;;;;6.63;3.20;;;16.30;99.90;;;;;;5041723;28;20498;-82
2022/10/07 11:17:34;;;;;;;10.40;2.90;;;16.30;99.90;;;;;;5041213;28;21036;-81
2022/10/07 11:20:14;;;;;;;9.63;3.13;;;16.40;99.90;;;;;;5037734;28;20405;-81
2022/10/07 11:22:48;;;;;;;7.40;2.57;;;16.40;99.90;;;;;;5040186;28;20447;-82
2022/10/07 11:25:25;;;;;;;9.17;2.20;;;16.50;99.90;;;;;;5040643;28;20532;-81
2022/10/07 11:27:59;;;;;;;7.90;2.87;;;16.50;99.90;;;;;;5041938;28;20414;-82
2022/10/07 11:30:30;;;;;;;7.17;2.60;;;16.60;99.90;;;;;;5040104;28;20465;-82
2022/10/07 11:33:04;;;;;;;7.50;2.97;;;16.60;99.90;;;;;;5038718;28;20455;-81
2022/10/07 11:35:37;;;;;;;8.30;2.77;;;16.60;99.90;;;;;;5038165;28;20474;-81
2022/10/07 11:38:16;;;;;;;7.27;2.27;;;16.70;99.90;;;;;;5039856;28;20437;-83
2022/10/07 11:40:47;;;;;;;14.47;3.73;;;16.70;99.90;;;;;;5040274;28;20425;-82
2022/10/07 11:43:21;;;;;;;7.40;2.50;;;16.70;99.90;;;;;;5042362;28;20447;-81
2022/10/07 11:45:52;;;;;;;9.07;3.20;;;16.80;99.90;;;;;;5042877;28;20425;-83
2022/10/07 11:48:26;;;;;;;5.67;2.80;;;16.80;99.90;;;;;;5040767;28;20516;-81
2022/10/07 11:51:01;;;;;;;9.60;3.20;;;16.90;99.90;;;;;;5039515;28;20432;-80
2022/10/07 11:53:34;;;;;;;10.50;3.10;;;16.90;99.90;;;;;;5041032;28;20505;-81
2022/10/07 11:56:05;;;;;;;8.03;2.40;;;17.00;99.90;;;;;;5039523;28;20497;-81
2022/10/07 11:58:36;;;;;;;7.90;2.53;;;17.00;99.90;;;;;;5041071;28;20470;-81
2022/10/07 12:01:30;;;;;;;12.90;3.43;;;17.00;99.90;;;;;;5039851;28;20466;-82
2022/10/07 12:04:40;;;;;;;7.80;2.60;;;17.10;99.90;;;;;;5041333;28;20528;-82
2022/10/07 12:07:37;;;;;;;6.90;2.50;;;17.10;99.90;;;;;;5041189;28;20422;-81
2022/10/07 12:10:26;;;;;;;7.43;2.23;;;17.20;99.90;;;;;;5038798;28;20441;-83
2022/10/07 12:13:01;;;;;;;7.20;2.20;;;17.30;99.90;;;;;;5036905;28;20443;-82
2022/10/07 12:15:37;;;;;;;6.37;2.83;;;17.30;99.90;;;;;;5037466;28;21003;-81
2022/10/07 12:18:29;;;;;;;6.40;2.40;;;17.20;99.90;;;;;;5036806;28;20533;-82
2022/10/07 12:21:08;;;;;;;8.90;2.87;;;17.30;99.90;;;;;;5037741;28;20471;-83
2022/10/07 12:23:42;;;;;;;5.90;2.30;;;17.30;99.90;;;;;;5037879;28;20565;-81
2022/10/07 12:26:50;;;;;;;6.13;2.50;;;17.40;99.90;;;;;;5038165;28;20413;-81
2022/10/07 12:29:52;;;;;;;10.13;3.17;;;17.50;99.90;;;;;;5042525;28;20450;-81
2022/10/07 12:32:59;;;;;;;7.47;2.63;;;17.60;99.90;;;;;;5041797;28;20431;-82
2022/10/07 12:35:50;;;;;;;6.67;2.97;;;17.60;99.90;;;;;;5031823;28;21032;-83
2022/10/07 12:38:27;;;;;;;8.00;2.80;;;17.70;99.90;;;;;;5042781;28;20941;-82
2022/10/07 12:41:16;;;;;;;8.17;3.17;;;17.70;99.90;;;;;;5042900;28;20449;-81
2022/10/07 12:43:49;;;;;;;8.03;3.00;;;17.80;99.90;;;;;;5043263;28;20490;-82
2022/10/07 12:46:20;;;;;;;8.90;2.90;;;17.80;99.90;;;;;;5042184;28;20496;-83
2022/10/07 12:49:03;;;;;;;7.17;2.90;;;17.80;99.90;;;;;;5042712;28;20486;-83
2022/10/07 12:51:37;;;;;;;6.40;2.80;;;17.90;99.90;;;;;;5043242;28;20410;-83
2022/10/07 12:54:12;;;;;;;7.50;2.90;;;17.90;99.90;;;;;;5042733;28;20482;-82
2022/10/07 12:56:44;;;;;;;10.73;3.10;;;17.90;99.90;;;;;;5041162;28;20929;-81
2022/10/07 12:59:49;;;;;;;9.60;2.90;;;17.90;99.90;;;;;;5040759;28;20466;-82
2022/10/07 13:02:50;;;;;;;9.03;3.07;;;17.80;99.90;;;;;;5039553;28;20887;-82
2022/10/07 13:06:08;;;;;;;6.17;2.53;;;17.90;99.90;;;;;;5041445;28;20885;-83
2022/10/07 13:09:19;;;;;;;7.90;2.60;;;17.90;99.90;;;;;;5041230;28;20421;-80
2022/10/07 13:12:18;;;;;;;8.53;2.60;;;18.00;99.90;;;;;;5045926;28;20478;-84
2022/10/07 13:14:56;;;;;;;10.93;3.80;;;18.00;99.90;;;;;;5033333;28;20470;-81
2022/10/07 13:17:35;;;;;;;7.40;2.33;;;18.10;99.90;;;;;;5043203;28;20458;-81
2022/10/07 13:20:20;;;;;;;11.23;2.70;;;18.20;99.90;;;;;;5041389;28;20522;-82
2022/10/07 13:22:49;;;;;;;10.53;2.50;;;18.20;99.90;;;;;;5041133;28;20538;-82
2022/10/07 13:25:20;;;;;;;9.77;3.40;;;18.30;99.90;;;;;;5040944;28;20470;-81
2022/10/07 13:27:54;;;;;;;8.00;2.53;;;18.30;99.90;;;;;;5053536;28;20423;-81